Time;durP1;ratioP1;P1;durP2;ratioP2;P2;SDS_P1;SDS_P2;PMS_P1;PMS_P2;Temp;Humidity;BMP_temperature;BMP_pressure;BME280_temperature;BME280_humidity;BME280_pressure;Samples;Min_cycle;Max_cycle;Signal;HPM_P1;HPM_P2
2021/12/21 00:02:25;;;;;;;23.00;13.60;;;;;;;-2.82;100.00;99567.70;102268;1316;74135;-76
2021/12/21 00:04:52;;;;;;;19.50;12.50;;;;;;;-2.80;100.00;99572.90;102307;1317;71037;-75
2021/12/21 00:07:19;;;;;;;17.30;11.20;;;;;;;-2.78;100.00;99563.67;101833;1317;74272;-75
2021/12/21 00:09:45;;;;;;;20.30;12.40;;;;;;;-2.77;100.00;99564.20;101896;1317;61402;-76
2021/12/21 00:12:15;;;;;;;20.40;12.60;;;;;;;-2.76;100.00;99570.63;102358;1317;61460;-76
2021/12/21 00:23:15;;;;;;;21.40;12.10;;;;;;;-2.80;100.00;99571.51;102183;1320;61393;-76
2021/12/21 00:25:20;;;;;;;20.50;12.20;;;;;;;-2.78;100.00;99573.95;102297;1316;61320;-76
2021/12/21 00:27:49;;;;;;;22.80;12.50;;;;;;;-2.78;100.00;99574.28;102342;1318;75395;-76
2021/12/21 00:30:16;;;;;;;17.80;11.40;;;;;;;-2.78;100.00;99583.84;102412;1316;69581;-76
2021/12/21 00:32:43;;;;;;;19.50;11.00;;;;;;;-2.78;100.00;99586.63;102286;1316;73210;-75
2021/12/21 00:35:10;;;;;;;17.40;10.50;;;;;;;-2.77;100.00;99589.74;102302;1316;61302;-76
2021/12/21 00:37:41;;;;;;;18.80;10.60;;;;;;;-2.76;100.00;99589.77;102330;1316;61566;-75
2021/12/21 00:40:10;;;;;;;21.00;10.90;;;;;;;-2.76;100.00;99588.73;101825;1316;73978;-78
2021/12/21 00:42:36;;;;;;;21.60;12.40;;;;;;;-2.76;100.00;99590.27;102206;1314;66677;-76
2021/12/21 00:45:05;;;;;;;19.70;11.80;;;;;;;-2.75;100.00;99590.80;102314;1316;71849;-75
2021/12/21 00:47:34;;;;;;;21.60;11.80;;;;;;;-2.74;100.00;99596.01;102081;1313;61491;-76
2021/12/21 00:50:03;;;;;;;24.40;11.60;;;;;;;-2.73;100.00;99598.80;102299;1317;61307;-76
2021/12/21 00:52:30;;;;;;;20.00;11.40;;;;;;;-2.73;100.00;99604.87;102478;1316;76249;-76
2021/12/21 00:54:57;;;;;;;17.40;10.70;;;;;;;-2.73;100.00;99604.00;102342;1316;70411;-77
2021/12/21 00:57:23;;;;;;;19.00;10.80;;;;;;;-2.74;100.00;99610.09;102315;1317;74255;-76
2021/12/21 00:59:50;;;;;;;16.60;9.90;;;;;;;-2.74;100.00;99605.74;102274;1317;61424;-76
2021/12/21 01:02:16;;;;;;;14.70;9.70;;;;;;;-2.73;99.96;99602.09;101943;1318;61416;-76
2021/12/21 01:04:47;;;;;;;15.00;9.30;;;;;;;-2.73;99.90;99597.56;102298;1316;76553;-75
2021/12/21 01:18:17;;;;;;;16.30;9.40;;;;;;;-2.75;99.83;99600.02;101564;1324;76373;-77
2021/12/21 01:21:01;;;;;;;17.50;8.60;;;;;;;-2.75;99.88;99596.70;101678;1320;69358;-75
2021/12/21 01:26:25;;;;;;;15.40;9.90;;;;;;;-2.74;99.70;99594.79;101562;1320;61419;-76
2021/12/21 01:39:09;;;;;;;19.30;11.80;;;;;;;-2.78;99.96;99599.66;101304;1324;61429;-76
2021/12/21 01:41:45;;;;;;;27.40;16.40;;;;;;;-2.78;100.00;99599.68;101588;1324;61380;-76
2021/12/21 01:44:21;;;;;;;21.40;14.30;;;;;;;-2.79;100.00;99596.53;101700;1325;76458;-75
2021/12/21 01:52:06;;;;;;;19.80;11.70;;;;;;;-2.78;100.00;99601.93;100118;1316;1005837;-77
2021/12/21 01:54:34;;;;;;;23.30;11.40;;;;;;;-2.77;100.00;99599.14;102369;1310;61477;-75
2021/12/21 01:57:01;;;;;;;18.90;10.70;;;;;;;-2.76;100.00;99597.92;102502;1316;75422;-76
2021/12/21 01:59:28;;;;;;;21.20;12.30;;;;;;;-2.73;100.00;99597.75;102328;1317;69537;-76
2021/12/21 02:01:55;;;;;;;18.20;13.10;;;;;;;-2.70;100.00;99594.08;102346;1316;73161;-76
2021/12/21 02:04:22;;;;;;;24.30;12.40;;;;;;;-2.67;100.00;99594.08;102151;1317;61398;-75
2021/12/21 02:06:49;;;;;;;21.20;12.90;;;;;;;-2.67;100.00;99594.40;102289;1316;61325;-75
2021/12/21 02:09:19;;;;;;;19.20;13.80;;;;;;;-2.65;100.00;99591.45;101567;1310;1002981;-76
2021/12/21 02:11:47;;;;;;;18.30;11.20;;;;;;;-2.61;100.00;99588.48;102248;1311;68838;-76
2021/12/21 02:14:15;;;;;;;18.50;10.90;;;;;;;-2.62;100.00;99587.42;102279;1317;74866;-76
2021/12/21 02:17:04;;;;;;;16.70;10.60;;;;;;;-2.62;100.00;99580.48;102350;1313;61183;-77
2021/12/21 02:19:38;;;;;;;22.90;11.50;;;;;;;-2.63;100.00;99583.44;101552;1316;1003852;-75
2021/12/21 02:22:12;;;;;;;21.80;12.40;;;;;;;-2.64;100.00;99590.39;102310;1310;75415;-76
2021/12/21 02:25:00;;;;;;;20.20;12.90;;;;;;;-2.63;100.00;99592.31;102284;1310;69685;-76
2021/12/21 02:27:29;;;;;;;21.00;13.30;;;;;;;-2.61;100.00;99591.78;102330;1317;73736;-75
2021/12/21 02:29:56;;;;;;;19.70;11.60;;;;;;;-2.59;100.00;99596.13;102247;1317;61346;-76
2021/12/21 02:32:23;;;;;;;20.50;12.30;;;;;;;-2.56;100.00;99592.63;102262;1316;61421;-76
2021/12/21 02:34:50;;;;;;;20.10;12.10;;;;;;;-2.56;100.00;99590.73;102271;1316;75530;-76
2021/12/21 02:37:16;;;;;;;18.00;11.00;;;;;;;-2.55;100.00;99593.67;102266;1316;70506;-75
2021/12/21 02:39:43;;;;;;;23.10;12.20;;;;;;;-2.54;100.00;99585.31;102286;1317;75032;-76
2021/12/21 02:42:10;;;;;;;17.30;11.60;;;;;;;-2.53;100.00;99585.64;102284;1310;61461;-76
2021/12/21 02:44:38;;;;;;;20.60;13.40;;;;;;;-2.53;100.00;99586.19;102304;1310;61282;-76
2021/12/21 02:47:05;;;;;;;18.10;11.70;;;;;;;-2.53;100.00;99584.95;101970;1318;73819;-76
2021/12/21 02:49:33;;;;;;;20.00;12.70;;;;;;;-2.52;100.00;99580.61;102320;1317;69537;-77
2021/12/21 02:51:59;;;;;;;19.20;11.60;;;;;;;-2.51;100.00;99576.77;102426;1317;74567;-75
2021/12/21 02:54:26;;;;;;;18.90;11.50;;;;;;;-2.51;100.00;99567.20;102510;1316;61370;-75
2021/12/21 02:56:52;;;;;;;19.80;11.70;;;;;;;-2.50;100.00;99566.68;102551;1310;61812;-76
2021/12/21 02:59:19;;;;;;;17.80;11.30;;;;;;;-2.49;100.00;99566.15;102841;1310;76610;-75
2021/12/21 03:01:45;;;;;;;22.20;12.40;;;;;;;-2.48;100.00;99557.80;103413;1317;68263;-75
2021/12/21 03:04:12;;;;;;;21.10;10.90;;;;;;;-2.47;100.00;99553.44;103402;1310;72571;-75
2021/12/21 03:14:39;;;;;;;17.60;11.50;;;;;;;-2.47;100.00;99544.05;102550;1317;68908;-76
2021/12/21 03:17:07;;;;;;;18.20;10.90;;;;;;;-2.49;100.00;99538.67;102485;1310;73319;-76
2021/12/21 03:19:34;;;;;;;18.10;10.30;;;;;;;-2.51;100.00;99541.29;102307;1310;61560;-76
2021/12/21 03:22:01;;;;;;;16.50;10.00;;;;;;;-2.52;100.00;99547.04;102327;1310;61302;-76
2021/12/21 03:24:28;;;;;;;17.90;9.50;;;;;;;-2.51;100.00;99552.95;102338;1310;75390;-76
2021/12/21 03:26:55;;;;;;;17.70;10.00;;;;;;;-2.50;100.00;99552.92;102481;1310;70278;-76
2021/12/21 03:29:22;;;;;;;15.60;10.30;;;;;;;-2.47;100.00;99556.22;102366;1313;73514;-76
2021/12/21 03:31:49;;;;;;;14.10;9.90;;;;;;;-2.45;100.00;99556.73;102323;1317;61766;-76
2021/12/21 03:34:16;;;;;;;20.20;12.60;;;;;;;-2.43;100.00;99558.98;102422;1316;61626;-77
2021/12/21 03:36:42;;;;;;;19.70;13.30;;;;;;;-2.40;100.00;99563.33;102414;1313;75297;-78
2021/12/21 03:39:16;;;;;;;18.80;11.80;;;;;;;-2.38;100.00;99568.18;102457;1310;67375;-76
2021/12/21 03:41:47;;;;;;;18.70;12.30;;;;;;;-2.35;100.00;99573.74;102556;1317;72651;-76
2021/12/21 03:44:17;;;;;;;18.40;12.70;;;;;;;-2.33;100.00;99577.90;102717;1310;61326;-76
2021/12/21 03:46:50;;;;;;;18.10;11.30;;;;;;;-2.30;100.00;99573.53;102774;1316;61383;-75
2021/12/21 03:52:01;;;;;;;20.70;12.10;;;;;;;-2.26;100.00;99571.61;103135;1316;70631;-76
2021/12/21 03:54:28;;;;;;;20.00;13.20;;;;;;;-2.25;100.00;99576.63;103233;1310;71646;-76
2021/12/21 03:56:54;;;;;;;24.00;13.10;;;;;;;-2.24;100.00;99575.23;103421;1310;61360;-76
2021/12/21 03:59:21;;;;;;;21.80;12.00;;;;;;;-2.23;100.00;99579.06;103335;1310;62099;-76
2021/12/21 04:01:52;;;;;;;20.30;13.70;;;;;;;-2.21;100.00;99581.15;104931;1317;74193;-77
2021/12/21 04:04:19;;;;;;;18.80;12.20;;;;;;;-2.20;100.00;99576.62;104921;1319;68348;-76
2021/12/21 04:06:47;;;;;;;22.30;13.90;;;;;;;-2.19;100.00;99575.56;105369;1310;73501;-77
2021/12/21 04:09:14;;;;;;;22.50;13.10;;;;;;;-2.18;100.00;99575.02;105476;1310;59464;-78
2021/12/21 04:11:41;;;;;;;22.80;13.50;;;;;;;-2.18;100.00;99573.47;104825;1317;59221;-76
2021/12/21 04:14:09;;;;;;;25.60;14.30;;;;;;;-2.17;100.00;99577.80;104750;1317;75286;-77
2021/12/21 04:16:37;;;;;;;22.90;14.00;;;;;;;-2.18;100.00;99578.17;102492;1317;69486;-76
2021/12/21 04:19:04;;;;;;;24.10;14.70;;;;;;;-2.18;100.00;99580.09;102241;1314;73231;-76
2021/12/21 04:21:31;;;;;;;25.30;14.60;;;;;;;-2.18;100.00;99578.70;102458;1316;61361;-77
2021/12/21 04:23:58;;;;;;;20.90;14.10;;;;;;;-2.18;100.00;99577.81;102417;1310;61389;-76
2021/12/21 04:26:24;;;;;;;22.20;14.60;;;;;;;-2.17;100.00;99579.72;102297;1316;75028;-76
2021/12/21 04:28:51;;;;;;;29.60;16.00;;;;;;;-2.17;100.00;99579.20;101613;1310;1003863;-76
2021/12/21 04:31:18;;;;;;;21.70;13.30;;;;;;;-2.17;100.00;99577.30;102066;1313;74544;-76
2021/12/21 04:33:45;;;;;;;21.00;14.20;;;;;;;-2.18;100.00;99577.48;102275;1316;61305;-76
2021/12/21 04:36:12;;;;;;;22.00;13.90;;;;;;;-2.18;100.00;99575.22;102272;1310;62251;-76
2021/12/21 04:38:43;;;;;;;20.80;14.50;;;;;;;-2.18;100.00;99573.48;102334;1316;76251;-76
2021/12/21 04:41:15;;;;;;;23.60;16.20;;;;;;;-2.18;100.00;99577.13;102030;1310;67404;-76
2021/12/21 04:43:43;;;;;;;23.00;16.30;;;;;;;-2.17;100.00;99579.90;102373;1314;73481;-76
2021/12/21 04:46:10;;;;;;;20.10;15.70;;;;;;;-2.16;100.00;99583.20;102339;1310;61310;-76
2021/12/21 04:48:37;;;;;;;23.60;15.80;;;;;;;-2.15;100.00;99585.10;102298;1316;61334;-75
2021/12/21 04:51:04;;;;;;;26.30;16.70;;;;;;;-2.14;100.00;99585.97;102258;1310;75409;-76
2021/12/21 04:53:31;;;;;;;25.90;17.00;;;;;;;-2.13;100.00;99586.48;102300;1317;69465;-76
2021/12/21 04:55:58;;;;;;;23.00;16.60;;;;;;;-2.12;100.00;99587.86;102265;1310;72961;-76
2021/12/21 04:58:25;;;;;;;25.10;17.90;;;;;;;-2.12;100.00;99584.39;102265;1311;61359;-76
2021/12/21 05:00:52;;;;;;;24.40;17.30;;;;;;;-2.12;100.00;99586.33;102316;1310;62197;-76
2021/12/21 05:03:19;;;;;;;25.60;17.70;;;;;;;-2.12;100.00;99591.36;102290;1310;75458;-76
2021/12/21 05:05:46;;;;;;;22.30;16.70;;;;;;;-2.12;100.00;99589.09;102240;1310;69240;-76
2021/12/21 05:08:25;;;;;;;19.70;14.20;;;;;;;-2.12;100.00;99590.30;102304;1310;72217;-76
2021/12/21 05:10:56;;;;;;;24.50;16.10;;;;;;;-2.12;100.00;99590.14;102270;1310;61329;-76
2021/12/21 05:13:25;;;;;;;22.20;15.20;;;;;;;-2.14;100.00;99595.54;102413;1310;61316;-76
2021/12/21 05:15:53;;;;;;;22.80;14.90;;;;;;;-2.16;100.00;99591.89;102389;1310;73939;-76
2021/12/21 05:18:20;;;;;;;24.00;14.10;;;;;;;-2.16;100.00;99592.94;102349;1310;69341;-75
2021/12/21 05:20:47;;;;;;;21.80;14.40;;;;;;;-2.16;100.00;99593.81;102246;1310;73628;-75
2021/12/21 05:23:14;;;;;;;25.10;15.50;;;;;;;-2.16;100.00;99593.29;102276;1310;61422;-75
2021/12/21 05:25:41;;;;;;;21.50;13.60;;;;;;;-2.16;100.00;99591.73;102306;1317;61381;-75
2021/12/21 05:28:11;;;;;;;17.40;12.90;;;;;;;-2.15;100.00;99591.55;102340;1316;76255;-75
2021/12/21 05:30:39;;;;;;;22.00;12.60;;;;;;;-2.14;100.00;99594.15;101988;1316;68336;-75
2021/12/21 05:33:07;;;;;;;18.80;11.80;;;;;;;-2.15;100.00;99597.80;102242;1310;74230;-76
2021/12/21 05:35:35;;;;;;;16.90;11.80;;;;;;;-2.14;100.00;99595.19;102323;1317;61425;-77
2021/12/21 05:38:04;;;;;;;17.50;11.30;;;;;;;-2.14;100.00;99598.85;102007;1314;61362;-76
2021/12/21 05:40:35;;;;;;;19.20;12.10;;;;;;;-2.14;100.00;99597.45;102346;1309;74332;-75
2021/12/21 05:43:04;;;;;;;18.90;13.90;;;;;;;-2.15;100.00;99599.55;102317;1310;69340;-76
2021/12/21 05:45:32;;;;;;;19.50;12.80;;;;;;;-2.16;100.00;99596.24;102135;1315;75004;-76
2021/12/21 05:47:58;;;;;;;20.90;14.50;;;;;;;-2.17;100.00;99598.35;102240;1316;61326;-76
2021/12/21 05:50:25;;;;;;;19.40;13.50;;;;;;;-2.20;100.00;99598.72;102268;1310;61224;-76
2021/12/21 05:52:52;;;;;;;25.30;14.20;;;;;;;-2.21;100.00;99599.08;102333;1310;76050;-76
2021/12/21 05:55:20;;;;;;;25.50;15.60;;;;;;;-2.23;100.00;99594.55;102265;1311;70273;-75
2021/12/21 05:57:47;;;;;;;18.90;13.00;;;;;;;-2.22;100.00;99595.23;102300;1310;73380;-76
2021/12/21 06:00:21;;;;;;;21.70;13.50;;;;;;;-2.22;100.00;99594.02;102074;1314;61392;-76
2021/12/21 06:02:49;;;;;;;25.30;15.30;;;;;;;-2.22;100.00;99591.06;102291;1317;61315;-76
2021/12/21 06:05:15;;;;;;;28.90;19.10;;;;;;;-2.23;100.00;99594.03;102313;1317;76922;-77
2021/12/21 06:07:42;;;;;;;46.60;21.50;;;;;;;-2.23;100.00;99597.52;102422;1310;70275;-76
2021/12/21 06:10:20;;;;;;;38.90;17.40;;;;;;;-2.23;100.00;99594.73;102380;1310;73454;-77
2021/12/21 06:15:34;;;;;;;37.40;17.40;;;;;;;-2.21;100.00;99600.81;102317;1310;61223;-76
2021/12/21 06:26:11;;;;;;;25.90;15.30;;;;;;;-2.18;100.00;99611.59;102256;1310;61400;-76
2021/12/21 06:28:38;;;;;;;37.80;18.30;;;;;;;-2.17;100.00;99614.71;102250;1311;62177;-75
2021/12/21 06:31:04;;;;;;;37.50;19.90;;;;;;;-2.17;100.00;99619.59;101896;1316;76140;-77
2021/12/21 06:33:31;;;;;;;42.10;21.20;;;;;;;-2.16;100.00;99624.28;102317;1310;69849;-75
2021/12/21 06:35:58;;;;;;;48.80;23.10;;;;;;;-2.13;100.00;99628.96;101883;1317;71517;-76
2021/12/21 06:38:25;;;;;;;33.00;20.00;;;;;;;-2.11;100.00;99632.95;102335;1314;61241;-76
2021/12/21 06:40:52;;;;;;;35.20;19.40;;;;;;;-2.08;100.00;99634.34;101568;1316;1004154;-77
2021/12/21 06:43:19;;;;;;;35.70;20.70;;;;;;;-2.07;100.00;99636.42;102309;1310;75757;-76
2021/12/21 06:51:40;;;;;;;29.70;19.10;;;;;;;-2.01;100.00;99641.78;101989;1313;61568;-76
2021/12/21 06:54:06;;;;;;;26.50;18.00;;;;;;;-2.00;100.00;99637.25;102273;1313;61858;-76
2021/12/21 06:56:33;;;;;;;25.20;18.10;;;;;;;-2.00;100.00;99640.73;102289;1316;61406;-77
2021/12/21 06:58:59;;;;;;;26.60;17.20;;;;;;;-2.00;100.00;99640.39;102287;1310;70025;-78
2021/12/21 07:01:28;;;;;;;22.60;16.10;;;;;;;-1.98;100.00;99646.11;102131;1316;61840;-75
2021/12/21 07:03:56;;;;;;;22.20;15.40;;;;;;;-1.96;100.00;99651.86;101613;1313;1003856;-75
2021/12/21 07:06:23;;;;;;;29.40;17.60;;;;;;;-1.95;100.00;99656.20;101937;1316;61541;-75
2021/12/21 07:09:10;;;;;;;36.20;19.00;;;;;;;-1.92;100.00;99657.22;102294;1310;76483;-78
2021/12/21 07:11:44;;;;;;;33.60;18.90;;;;;;;-1.89;100.00;99657.91;102272;1310;69396;-75
2021/12/21 07:19:44;;;;;;;23.00;15.30;;;;;;;-1.82;100.00;99673.20;102334;1314;61330;-76
2021/12/21 07:22:12;;;;;;;24.10;15.20;;;;;;;-1.80;100.00;99674.57;102323;1310;74853;-77
2021/12/21 07:24:39;;;;;;;28.30;15.60;;;;;;;-1.78;100.00;99678.73;101959;1314;70224;-76
2021/12/21 07:27:06;;;;;;;31.10;18.20;;;;;;;-1.76;100.00;99685.35;102269;1313;73382;-77
2021/12/21 07:29:32;;;;;;;20.80;13.80;;;;;;;-1.73;100.00;99683.06;102384;1310;61362;-77
2021/12/21 07:31:59;;;;;;;35.20;15.60;;;;;;;-1.70;100.00;99679.56;102415;1316;61231;-77
2021/12/21 07:34:25;;;;;;;29.00;16.00;;;;;;;-1.67;100.00;99682.16;102307;1318;75150;-76
2021/12/21 07:36:52;;;;;;;30.00;17.40;;;;;;;-1.65;100.00;99682.14;102284;1310;61206;-75
2021/12/21 07:39:19;;;;;;;32.00;17.00;;;;;;;-1.60;100.00;99685.08;102272;1316;73388;-75
2021/12/21 07:41:46;;;;;;;35.90;19.00;;;;;;;-1.58;100.00;99687.48;102297;1310;61399;-75
2021/12/21 07:44:14;;;;;;;22.70;14.20;;;;;;;-1.54;100.00;99688.34;102271;1316;61324;-75
2021/12/21 07:46:42;;;;;;;24.80;14.00;;;;;;;-1.49;100.00;99688.66;102288;1310;76548;-76
2021/12/21 07:49:09;;;;;;;20.40;13.70;;;;;;;-1.47;100.00;99690.56;102300;1310;69207;-76
2021/12/21 07:51:36;;;;;;;20.80;13.80;;;;;;;-1.41;100.00;99689.99;101558;1310;1002996;-76
2021/12/21 07:54:02;;;;;;;18.50;13.50;;;;;;;-1.36;100.00;99687.34;102351;1310;61325;-76
2021/12/21 07:56:30;;;;;;;17.20;13.70;;;;;;;-1.29;100.00;99688.85;102254;1310;210128;-76
2021/12/21 07:58:58;;;;;;;18.90;14.30;;;;;;;-1.23;100.00;99686.54;102271;1310;75481;-76
2021/12/21 08:01:26;;;;;;;23.90;14.90;;;;;;;-1.19;100.00;99686.52;102326;1310;69526;-76
2021/12/21 08:03:56;;;;;;;19.90;13.40;;;;;;;-1.17;100.00;99683.35;102298;1317;73288;-76
2021/12/21 08:06:23;;;;;;;28.20;16.60;;;;;;;-1.14;100.00;99685.60;102038;1316;61453;-77
2021/12/21 08:08:51;;;;;;;30.60;17.20;;;;;;;-1.10;100.00;99686.08;101905;1314;61335;-76
2021/12/21 08:13:57;;;;;;;22.00;13.20;;;;;;;-0.93;100.00;99688.04;102355;1310;69648;-75
2021/12/21 08:16:24;;;;;;;21.70;13.20;;;;;;;-0.85;100.00;99685.52;102478;1310;72990;-77
2021/12/21 08:18:51;;;;;;;17.40;12.40;;;;;;;-0.81;100.00;99684.94;102761;1310;61710;-76
2021/12/21 08:21:18;;;;;;;18.50;12.40;;;;;;;-0.78;100.00;99685.27;103169;1310;61337;-76
2021/12/21 08:23:46;;;;;;;16.00;12.10;;;;;;;-0.76;100.00;99689.44;103191;1316;76171;-76
2021/12/21 08:26:13;;;;;;;22.70;13.80;;;;;;;-0.79;99.93;99696.80;102764;1314;68949;-75
2021/12/21 08:28:40;;;;;;;17.50;12.70;;;;;;;-0.81;99.86;99703.79;102095;1317;74998;-75
2021/12/21 08:31:13;;;;;;;23.30;13.30;;;;;;;-0.79;99.91;99702.02;102448;1310;61241;-76
2021/12/21 08:33:41;;;;;;;22.40;13.50;;;;;;;-0.81;99.67;99699.08;102617;1310;61642;-76
2021/12/21 08:36:10;;;;;;;22.00;14.60;;;;;;;-0.80;99.46;99699.77;102464;1310;75499;-77
2021/12/21 08:38:39;;;;;;;20.70;14.60;;;;;;;-0.70;99.49;99701.59;102535;1317;70546;-76
2021/12/21 08:41:06;;;;;;;18.90;14.20;;;;;;;-0.49;99.42;99705.39;102523;1310;73409;-75
2021/12/21 08:43:35;;;;;;;20.20;14.30;;;;;;;-0.16;99.17;99704.83;102268;1310;61791;-76
2021/12/21 08:46:03;;;;;;;26.20;14.60;;;;;;;0.10;98.37;99708.36;102358;1310;61318;-75
2021/12/21 08:48:31;;;;;;;27.80;15.20;;;;;;;0.26;98.19;99715.30;102001;1316;75772;-76
2021/12/21 08:51:00;;;;;;;18.60;12.80;;;;;;;0.30;97.28;99715.24;102279;1316;69330;-76
2021/12/21 08:53:27;;;;;;;25.80;17.20;;;;;;;0.25;96.78;99718.65;102382;1310;72399;-75
2021/12/21 08:55:54;;;;;;;24.40;15.10;;;;;;;0.34;96.88;99719.05;102291;1316;61390;-76
2021/12/21 08:58:22;;;;;;;21.80;14.10;;;;;;;0.55;96.72;99714.90;102299;1311;61301;-75
2021/12/21 09:00:50;;;;;;;23.60;15.10;;;;;;;0.62;95.93;99714.45;102355;1310;76344;-76
2021/12/21 09:03:17;;;;;;;28.10;16.20;;;;;;;0.52;95.75;99719.13;102470;1310;69156;-77
2021/12/21 09:05:44;;;;;;;24.50;15.80;;;;;;;0.51;96.52;99722.48;102462;1310;73549;-76
2021/12/21 09:08:11;;;;;;;29.50;17.40;;;;;;;0.50;96.77;99721.45;102219;1313;61278;-76
2021/12/21 09:10:39;;;;;;;20.50;14.00;;;;;;;0.40;96.42;99725.94;102382;1318;61355;-76
2021/12/21 09:13:08;;;;;;;10.90;9.10;;;;;;;0.12;95.98;99730.52;101335;1316;1002685;-75
2021/12/21 09:15:34;;;;;;;12.60;8.60;;;;;;;-0.31;96.34;99738.19;102425;1311;68431;-76
2021/12/21 09:18:01;;;;;;;10.50;7.40;;;;;;;-0.70;97.58;99735.96;102351;1310;73487;-75
2021/12/21 09:20:30;;;;;;;12.60;8.70;;;;;;;-1.06;98.03;99739.41;101657;1311;1003891;-75
2021/12/21 09:22:57;;;;;;;12.20;8.30;;;;;;;-1.25;98.52;99743.40;102424;1310;61326;-76
2021/12/21 09:25:25;;;;;;;11.60;7.90;;;;;;;-1.27;98.76;99745.49;102404;1310;75270;-75
2021/12/21 09:27:54;;;;;;;10.20;7.50;;;;;;;-1.24;98.45;99747.57;102340;1310;69265;-75
2021/12/21 09:30:22;;;;;;;12.40;8.20;;;;;;;-1.24;98.30;99748.27;102158;1310;73496;-76
2021/12/21 09:32:51;;;;;;;13.00;8.20;;;;;;;-1.22;98.36;99746.52;102527;1316;61272;-78
2021/12/21 09:35:18;;;;;;;10.10;7.70;;;;;;;-1.25;98.15;99749.66;102431;1310;61301;-76
2021/12/21 09:37:45;;;;;;;11.10;8.50;;;;;;;-1.31;98.21;99755.98;102412;1311;76377;-76
2021/12/21 09:40:17;;;;;;;10.10;8.40;;;;;;;-1.37;98.41;99756.19;102322;1311;70134;-75
2021/12/21 09:42:44;;;;;;;11.10;8.40;;;;;;;-1.36;98.44;99754.27;102172;1314;73224;-75
2021/12/21 09:45:12;;;;;;;11.40;8.90;;;;;;;-1.29;98.54;99757.20;102347;1310;61435;-75
2021/12/21 09:47:38;;;;;;;14.10;9.30;;;;;;;-1.20;98.30;99749.63;101672;1316;1003784;-75
2021/12/21 09:50:07;;;;;;;12.30;8.80;;;;;;;-1.10;98.12;99747.47;102395;1310;75447;-75
2021/12/21 09:52:35;;;;;;;26.10;13.70;;;;;;;-1.02;97.37;99750.54;102131;1313;69195;-80
2021/12/21 09:55:05;;;;;;;19.20;10.30;;;;;;;-0.90;97.46;99744.69;102505;1310;73201;-75
2021/12/21 09:57:32;;;;;;;;;;;;;;;-0.78;96.71;99747.90;102448;1314;61261;-76
2021/12/21 09:59:58;;;;;;;16.40;9.50;;;;;;;-0.74;96.27;99743.16;102443;1310;61704;-76
2021/12/21 10:02:26;;;;;;;18.10;9.20;;;;;;;-0.72;95.88;99740.70;102411;1310;76403;-76
2021/12/21 10:05:02;;;;;;;24.90;10.30;;;;;;;-0.69;95.77;99733.86;102403;1316;67823;-77
2021/12/21 10:07:29;;;;;;;17.10;10.00;;;;;;;-0.66;95.30;99736.62;102266;1318;73083;-77
2021/12/21 10:10:25;;;;;;;24.60;12.70;;;;;;;-0.69;95.05;99733.52;102500;1310;61319;-77
2021/12/21 10:12:52;;;;;;;25.20;13.10;;;;;;;-0.70;94.81;99734.05;101762;1319;61689;-77
2021/12/21 10:15:24;;;;;;;25.10;13.20;;;;;;;-0.67;94.54;99733.84;101986;1322;61586;-77
2021/12/21 10:17:57;;;;;;;29.20;15.10;;;;;;;-0.49;94.65;99730.70;102015;1323;69626;-78
2021/12/21 10:20:37;;;;;;;22.00;12.20;;;;;;;-0.37;94.27;99731.27;101763;1322;73413;-77
2021/12/21 10:23:16;;;;;;;27.60;13.00;;;;;;;-0.36;93.73;99731.61;102130;1319;61292;-77
2021/12/21 10:25:46;;;;;;;26.20;13.30;;;;;;;-0.43;93.13;99734.13;101906;1323;62058;-77
2021/12/21 10:28:32;;;;;;;29.00;14.70;;;;;;;-0.48;93.23;99736.42;102154;1319;74689;-78
2021/12/21 10:31:02;;;;;;;22.60;12.90;;;;;;;-0.42;93.66;99732.38;102300;1319;70201;-78
2021/12/21 10:33:30;;;;;;;21.60;13.00;;;;;;;-0.31;93.87;99734.35;102386;1319;73463;-78
2021/12/21 10:35:59;;;;;;;22.80;13.50;;;;;;;-0.26;93.04;99731.85;102565;1319;61509;-77
2021/12/21 10:38:41;;;;;;;23.80;11.90;;;;;;;-0.27;92.28;99727.49;102472;1325;61618;-78
2021/12/21 10:41:22;;;;;;;17.50;10.60;;;;;;;-0.29;90.39;99725.60;103217;1319;74683;-78
2021/12/21 10:44:03;;;;;;;15.50;10.10;;;;;;;-0.33;90.50;99725.64;103607;1325;67537;-77
2021/12/21 10:46:32;;;;;;;13.50;9.10;;;;;;;-0.33;89.77;99720.57;102887;1323;71356;-78
2021/12/21 10:49:18;;;;;;;14.50;9.80;;;;;;;-0.35;90.10;99717.44;103844;1319;59932;-78
2021/12/21 10:51:51;;;;;;;15.40;9.20;;;;;;;-0.32;89.77;99716.55;105513;1318;60503;-77
2021/12/21 10:54:31;;;;;;;14.20;9.20;;;;;;;-0.27;89.36;99715.79;105578;1310;75194;-78
2021/12/21 10:57:02;;;;;;;14.40;10.20;;;;;;;-0.27;88.86;99709.32;105007;1317;67497;-77
2021/12/21 10:59:31;;;;;;;15.40;8.30;;;;;;;-0.23;89.01;99708.93;104643;1310;73598;-78
2021/12/21 11:02:22;;;;;;;12.70;8.40;;;;;;;-0.20;87.73;99709.42;102521;1310;61337;-78
2021/12/21 11:04:54;;;;;;;15.10;8.70;;;;;;;-0.20;87.74;99708.55;102616;1310;61441;-78
2021/12/21 11:10:10;;;;;;;15.40;8.00;;;;;;;-0.15;87.73;99715.13;102501;1313;70184;-80
2021/12/21 11:12:48;;;;;;;11.50;7.40;;;;;;;-0.15;86.49;99712.86;102448;1310;73411;-80
2021/12/21 11:15:18;;;;;;;16.60;9.30;;;;;;;-0.16;86.15;99708.85;102399;1310;61350;-79
2021/12/21 11:17:45;;;;;;;16.90;9.80;;;;;;;-0.15;85.79;99709.20;102434;1310;61818;-77
2021/12/21 11:20:13;;;;;;;16.00;9.40;;;;;;;-0.18;84.87;99711.31;102362;1313;75342;-78
2021/12/21 11:22:43;;;;;;;11.50;7.90;;;;;;;-0.23;84.70;99711.20;102426;1317;69690;-79
2021/12/21 11:25:13;;;;;;;12.90;7.70;;;;;;;-0.24;84.70;99708.77;102461;1310;72836;-79
2021/12/21 11:27:41;;;;;;;12.50;7.90;;;;;;;-0.23;84.72;99707.00;102133;1313;61396;-78
2021/12/21 11:30:15;;;;;;;19.30;9.00;;;;;;;-0.22;83.92;99704.20;102054;1316;61314;-78
2021/12/21 11:32:45;;;;;;;19.00;9.80;;;;;;;-0.24;84.44;99702.48;102400;1311;75225;-79
2021/12/21 11:37:43;;;;;;;15.00;9.20;;;;;;;-0.13;83.65;99699.20;102327;1314;73674;-77
2021/12/21 11:40:13;;;;;;;18.80;10.70;;;;;;;-0.11;83.09;99701.27;102357;1317;61329;-79
2021/12/21 11:42:52;;;;;;;33.90;19.70;;;;;;;-0.08;83.37;99699.50;102366;1314;61215;-77
2021/12/21 11:45:27;;;;;;;15.80;10.50;;;;;;;-0.06;82.25;99699.48;102293;1316;76001;-78
2021/12/21 11:48:12;;;;;;;12.40;8.10;;;;;;;-0.07;81.67;99701.95;101934;1317;69387;-79
2021/12/21 11:50:42;;;;;;;11.90;7.00;;;;;;;-0.07;81.13;99704.02;102337;1310;74143;-78
2021/12/21 11:53:12;;;;;;;18.50;9.30;;;;;;;-0.07;80.85;99701.93;102369;1310;61317;-79
2021/12/21 11:55:42;;;;;;;16.30;9.10;;;;;;;-0.06;80.97;99703.31;102429;1310;61930;-79
2021/12/21 11:58:28;;;;;;;15.80;8.70;;;;;;;-0.02;80.97;99705.88;102354;1310;75436;-79
2021/12/21 12:01:02;;;;;;;12.80;7.90;;;;;;;0.03;81.12;99702.69;102335;1317;69724;-80
2021/12/21 12:03:31;;;;;;;11.80;6.40;;;;;;;0.04;80.94;99706.67;102324;1310;73381;-78
2021/12/21 12:06:06;;;;;;;11.60;6.70;;;;;;;0.02;80.02;99708.29;102528;1310;61409;-78
2021/12/21 12:08:58;;;;;;;7.90;5.20;;;;;;;-0.02;79.80;99706.23;102533;1316;61421;-78
2021/12/21 12:11:38;;;;;;;7.10;5.40;;;;;;;-0.02;79.98;99706.95;102089;1310;76793;-79
2021/12/21 12:14:13;;;;;;;;;;;;;;;-0.10;78.75;99707.39;102427;1317;69533;-80
2021/12/21 12:16:49;;;;;;;10.70;5.80;;;;;;;-0.18;79.47;99705.73;102283;1310;74818;-79
2021/12/21 12:19:21;;;;;;;8.30;5.80;;;;;;;-0.25;79.84;99707.91;102341;1310;61318;-79
2021/12/21 12:22:06;;;;;;;10.80;6.80;;;;;;;-0.37;79.00;99709.45;102362;1310;61299;-79
2021/12/21 12:24:38;;;;;;;10.90;7.10;;;;;;;-0.49;79.56;99709.05;102401;1310;75319;-79
2021/12/21 12:27:14;;;;;;;13.00;7.70;;;;;;;-0.57;79.57;99712.30;102088;1316;68681;-79
2021/12/21 12:29:49;;;;;;;9.60;7.00;;;;;;;-0.63;79.80;99711.82;102391;1310;74534;-79
2021/12/21 12:32:29;;;;;;;16.60;8.70;;;;;;;-0.60;80.10;99708.65;102571;1311;61281;-79
2021/12/21 12:35:09;;;;;;;16.80;9.50;;;;;;;-0.53;80.37;99711.19;102354;1311;61278;-80
2021/12/21 12:37:50;;;;;;;11.70;6.70;;;;;;;-0.48;79.90;99717.41;102331;1316;74941;-79